Time;durP1;ratioP1;P1;durP2;ratioP2;P2;SDS_P1;SDS_P2;PMS_P1;PMS_P2;Temp;Humidity;BMP_temperature;BMP_pressure;BME280_temperature;BME280_humidity;BME280_pressure;Samples;Min_cycle;Max_cycle;Signal;HPM_P1;HPM_P2
2022/11/13 00:01:48;;;;;;;6.20;4.40;;;;;;;1.60;82.83;97224.11;1719614;83;21479;-77
2022/11/13 00:04:33;;;;;;;8.00;4.43;;;;;;;1.57;83.04;97222.27;1719151;83;21476;-77
2022/11/13 00:07:19;;;;;;;6.97;4.60;;;;;;;1.63;83.73;97216.42;1719499;83;21550;-77
2022/11/13 00:10:05;;;;;;;7.67;4.73;;;;;;;1.66;83.06;97212.64;1726893;82;21071;-78
2022/11/13 00:12:50;;;;;;;6.00;4.37;;;;;;;1.66;83.05;97210.04;1732306;83;21009;-78
2022/11/13 00:15:36;;;;;;;9.00;4.87;;;;;;;1.58;83.98;97220.13;1732299;83;21547;-78
2022/11/13 00:18:21;;;;;;;9.43;4.70;;;;;;;1.63;83.82;97215.12;1732358;83;21052;-77
2022/11/13 00:21:23;;;;;;;8.97;5.83;;;;;;;1.65;83.78;97205.67;1732111;83;21037;-77
2022/11/13 00:24:08;;;;;;;11.43;7.03;;;;;;;1.82;84.24;97210.28;1732465;83;21048;-77
2022/11/13 00:26:53;;;;;;;8.50;5.50;;;;;;;1.90;83.17;97206.27;1732196;83;21016;-77
2022/11/13 00:29:39;;;;;;;9.23;3.87;;;;;;;1.83;82.16;97212.05;1732391;83;21072;-78
2022/11/13 00:32:25;;;;;;;9.60;5.37;;;;;;;1.77;82.58;97210.51;1732113;83;21048;-77
2022/11/13 00:35:10;;;;;;;7.97;4.10;;;;;;;1.64;82.09;97208.70;1732313;83;21060;-77
2022/11/13 00:37:56;;;;;;;6.90;4.00;;;;;;;1.55;81.96;97211.32;1732201;83;21100;-77
2022/11/13 00:40:40;;;;;;;10.50;5.43;;;;;;;1.49;82.17;97211.95;1732347;83;21052;-77
2022/11/13 00:43:26;;;;;;;8.03;4.40;;;;;;;1.39;82.02;97207.19;1732171;83;21571;-78
2022/11/13 00:46:11;;;;;;;8.73;4.80;;;;;;;1.31;82.57;97213.36;1732333;83;21044;-78
2022/11/13 00:48:56;;;;;;;10.47;6.50;;;;;;;1.18;82.96;97211.03;1732135;83;21065;-78
2022/11/13 00:51:42;;;;;;;10.37;6.10;;;;;;;1.17;84.34;97207.97;1732339;83;20993;-79
2022/11/13 00:54:28;;;;;;;12.53;7.53;;;;;;;1.16;83.74;97203.19;1700841;83;28234;-78
2022/11/13 00:57:13;;;;;;;8.47;5.43;;;;;;;1.32;83.03;97200.83;1732186;83;21004;-79
2022/11/13 00:59:59;;;;;;;15.47;7.90;;;;;;;1.30;83.28;97199.86;1732100;83;21061;-79
2022/11/13 01:02:44;;;;;;;12.33;7.60;;;;;;;1.34;83.35;97198.30;1732168;83;21012;-79
2022/11/13 01:05:30;;;;;;;7.30;4.60;;;;;;;1.38;83.42;97197.17;1731916;83;21514;-79
2022/11/13 01:08:15;;;;;;;8.33;3.80;;;;;;;1.36;83.29;97201.45;1732061;83;21103;-79
2022/11/13 01:11:11;;;;;;;21.53;11.03;;;;;;;1.29;82.89;97195.08;1732113;82;21021;-79
2022/11/13 01:13:56;;;;;;;24.33;11.97;;;;;;;1.08;83.33;97192.84;1732035;83;21088;-79
2022/11/13 01:16:41;;;;;;;8.43;4.43;;;;;;;1.01;82.94;97185.20;1732480;83;21052;-79
2022/11/13 01:19:26;;;;;;;8.80;5.40;;;;;;;1.03;83.56;97186.16;1732154;83;21096;-78
2022/11/13 01:22:11;;;;;;;6.67;3.90;;;;;;;1.13;84.48;97185.24;1732468;83;20993;-78
2022/11/13 01:24:57;;;;;;;7.43;4.17;;;;;;;1.25;84.24;97185.78;1732148;83;21487;-78
2022/11/13 01:27:42;;;;;;;5.23;3.67;;;;;;;1.38;84.62;97185.88;1732165;83;21012;-78
2022/11/13 01:30:27;;;;;;;7.07;3.40;;;;;;;1.44;84.43;97179.66;1732111;83;21578;-78
2022/11/13 01:33:13;;;;;;;4.87;2.90;;;;;;;1.50;83.93;97176.88;1732560;83;21021;-78
2022/11/13 01:36:18;;;;;;;5.33;3.70;;;;;;;1.35;82.88;97180.56;1732229;83;20989;-78
2022/11/13 01:39:04;;;;;;;9.03;4.87;;;;;;;1.35;83.62;97176.24;1732542;83;21013;-78
2022/11/13 01:41:50;;;;;;;8.37;5.33;;;;;;;1.35;83.56;97184.05;1732673;83;21020;-78
2022/11/13 01:44:52;;;;;;;8.00;3.63;;;;;;;1.32;83.14;97185.64;1732531;83;21001;-78
2022/11/13 01:47:37;;;;;;;5.67;4.00;;;;;;;1.24;82.93;97182.72;1732292;83;21534;-78
2022/11/13 01:50:22;;;;;;;10.03;6.30;;;;;;;1.25;83.73;97176.25;1732262;83;21075;-78
2022/11/13 01:53:08;;;;;;;7.03;4.63;;;;;;;1.19;82.94;97179.03;1732302;83;21016;-78
2022/11/13 01:55:53;;;;;;;8.83;4.07;;;;;;;1.14;83.42;97175.34;1732368;83;20993;-78
2022/11/13 01:58:41;;;;;;;6.27;3.77;;;;;;;1.16;83.62;97170.69;1732296;83;21220;-77
2022/11/13 02:01:27;;;;;;;6.27;4.03;;;;;;;1.20;83.47;97169.09;1732494;83;21068;-77
2022/11/13 02:04:12;;;;;;;7.47;3.60;;;;;;;1.16;82.82;97164.57;1732245;83;21506;-77
2022/11/13 02:07:11;;;;;;;6.37;3.43;;;;;;;1.14;83.87;97167.55;1732156;83;21009;-77
2022/11/13 02:09:57;;;;;;;8.20;4.73;;;;;;;1.07;83.15;97165.08;1732108;83;21580;-77
2022/11/13 02:12:48;;;;;;;7.27;4.87;;;;;;;0.97;83.34;97166.39;1732309;83;21004;-78
2022/11/13 02:15:34;;;;;;;5.80;3.40;;;;;;;1.00;84.33;97163.91;1732299;83;21538;-77
2022/11/13 02:18:22;;;;;;;7.60;3.93;;;;;;;1.18;84.67;97161.22;1732379;83;21009;-77
2022/11/13 02:21:32;;;;;;;7.10;3.60;;;;;;;1.35;84.77;97158.03;1732244;83;21017;-78
2022/11/13 02:24:25;;;;;;;5.93;3.40;;;;;;;1.48;84.09;97150.33;1732430;83;21016;-77
2022/11/13 02:27:34;;;;;;;4.15;2.80;;;;;;;1.37;83.12;97148.59;1732384;83;21009;-77
2022/11/13 02:30:23;;;;;;;5.10;2.90;;;;;;;1.23;82.82;97168.80;1732409;83;20984;-77
2022/11/13 02:33:28;;;;;;;6.63;3.67;;;;;;;1.11;82.72;97169.59;1732330;83;21020;-78
2022/11/13 02:36:14;;;;;;;8.07;4.57;;;;;;;1.03;83.24;97169.27;1732341;83;21052;-77
2022/11/13 02:39:03;;;;;;;9.20;5.27;;;;;;;1.02;83.68;97162.27;1732127;83;21447;-77
2022/11/13 02:41:48;;;;;;;8.10;4.57;;;;;;;1.04;83.60;97162.36;1718711;83;21013;-77
2022/11/13 02:44:33;;;;;;;7.83;4.97;;;;;;;1.04;83.44;97163.66;1732209;83;20997;-78
2022/11/13 02:47:18;;;;;;;6.20;3.33;;;;;;;1.02;83.29;97165.29;1732337;83;21016;-78
2022/11/13 02:50:06;;;;;;;10.00;3.80;;;;;;;1.03;83.67;97161.47;1732199;83;21063;-76
2022/11/13 02:52:50;;;;;;;4.70;3.07;;;;;;;1.10;83.77;97161.30;1732058;83;21542;-78
2022/11/13 02:55:36;;;;;;;7.50;4.93;;;;;;;1.09;83.46;97154.34;1732330;83;21004;-78
2022/11/13 02:58:21;;;;;;;8.20;5.53;;;;;;;1.02;83.44;97160.09;1732484;83;20997;-78
2022/11/13 03:01:06;;;;;;;5.43;3.13;;;;;;;0.92;83.08;97162.70;1732118;83;21031;-78
2022/11/13 03:03:51;;;;;;;6.20;3.00;;;;;;;0.89;83.42;97158.67;1732488;83;21009;-78
2022/11/13 03:06:36;;;;;;;6.43;3.73;;;;;;;0.91;83.66;97170.03;1732209;83;21048;-78
2022/11/13 03:09:21;;;;;;;5.07;3.37;;;;;;;0.97;84.28;97166.39;1732386;83;20981;-78
2022/11/13 03:12:08;;;;;;;4.47;2.80;;;;;;;0.97;83.64;97164.20;1732242;83;21016;-78
2022/11/13 03:14:54;;;;;;;6.17;2.87;;;;;;;0.92;83.77;97167.02;1732002;83;21064;-78
2022/11/13 03:17:39;;;;;;;6.97;3.30;;;;;;;1.00;84.40;97163.91;1732335;83;21013;-78
2022/11/13 03:20:24;;;;;;;3.93;2.50;;;;;;;1.10;84.57;97168.22;1732077;83;21019;-77
2022/11/13 03:23:09;;;;;;;6.90;4.00;;;;;;;1.07;83.60;97168.98;1732318;83;21020;-78
2022/11/13 03:25:55;;;;;;;7.93;3.40;;;;;;;0.86;82.45;97172.84;1732317;83;21028;-78
2022/11/13 03:28:40;;;;;;;4.90;3.07;;;;;;;0.82;83.41;97168.31;1732243;83;21053;-79
2022/11/13 03:31:25;;;;;;;4.10;2.70;;;;;;;0.91;84.39;97160.94;1732436;83;21032;-78
2022/11/13 03:34:11;;;;;;;20.73;11.13;;;;;;;0.91;83.69;97162.23;1732006;83;21025;-78
2022/11/13 03:36:56;;;;;;;35.13;19.43;;;;;;;0.83;83.38;97158.38;1732343;83;21036;-78
2022/11/13 03:39:41;;;;;;;12.00;7.03;;;;;;;0.66;83.67;97166.75;1732238;83;21009;-78
2022/11/13 03:42:26;;;;;;;8.37;3.33;;;;;;;0.52;83.53;97162.22;1732305;83;21036;-78
2022/11/13 03:45:11;;;;;;;9.43;5.13;;;;;;;0.55;83.99;97161.05;1732339;83;20993;-79
2022/11/13 03:47:56;;;;;;;26.27;17.47;;;;;;;0.64;84.45;97160.59;1732364;83;21036;-79
2022/11/13 03:50:48;;;;;;;21.07;12.33;;;;;;;0.65;84.31;97159.76;1732089;82;21032;-79
2022/11/13 03:53:33;;;;;;;17.93;9.43;;;;;;;0.62;83.80;97161.81;1732453;82;21017;-79
2022/11/13 03:56:18;;;;;;;8.13;4.93;;;;;;;0.56;83.47;97165.44;1732120;83;21048;-79
2022/11/13 03:59:03;;;;;;;10.67;4.47;;;;;;;0.54;83.79;97164.89;1732283;83;21024;-79
2022/11/13 04:01:48;;;;;;;5.63;3.30;;;;;;;0.59;84.60;97172.06;1732184;83;21058;-79
2022/11/13 04:04:34;;;;;;;7.30;5.00;;;;;;;0.58;84.71;97165.11;1732439;83;21001;-79
2022/11/13 04:07:19;;;;;;;8.27;4.60;;;;;;;0.55;84.40;97154.97;1732295;83;20985;-79
2022/11/13 04:10:05;;;;;;;7.63;4.50;;;;;;;0.51;84.36;97163.05;1732112;82;21196;-79
2022/11/13 04:12:50;;;;;;;9.57;4.20;;;;;;;0.43;84.50;97164.00;1732406;83;21506;-79
2022/11/13 04:15:36;;;;;;;4.43;2.27;;;;;;;0.44;84.11;97163.59;1732276;83;21052;-79
2022/11/13 04:18:20;;;;;;;4.70;2.60;;;;;;;0.38;84.13;97159.01;1732349;83;21013;-79
2022/11/13 04:21:05;;;;;;;6.00;2.73;;;;;;;0.35;84.59;97156.28;1732176;83;21048;-79
2022/11/13 04:23:50;;;;;;;4.47;2.80;;;;;;;0.47;85.50;97159.83;1732303;83;20989;-79
2022/11/13 04:26:35;;;;;;;5.37;3.20;;;;;;;0.52;85.07;97155.72;1732281;83;21550;-79
2022/11/13 04:29:21;;;;;;;4.37;2.90;;;;;;;0.59;85.50;97160.80;1732376;83;21068;-79
2022/11/13 04:32:06;;;;;;;6.40;3.30;;;;;;;0.62;84.99;97150.54;1732198;83;21067;-79
2022/11/13 04:34:51;;;;;;;11.87;4.93;;;;;;;0.62;85.01;97147.52;1732400;83;21488;-79
2022/11/13 04:37:37;;;;;;;3.80;2.70;;;;;;;0.58;84.42;97159.00;1732032;83;21119;-79
2022/11/13 04:40:22;;;;;;;5.03;2.80;;;;;;;0.49;83.95;97150.40;1732392;83;21052;-79
2022/11/13 04:43:07;;;;;;;12.20;6.87;;;;;;;0.49;84.00;97164.68;1732265;83;21029;-79
2022/11/13 04:45:52;;;;;;;5.00;2.87;;;;;;;0.42;83.95;97165.22;1732388;83;21527;-79
2022/11/13 04:48:37;;;;;;;4.40;2.90;;;;;;;0.35;84.10;97157.58;1732174;83;21120;-79
2022/11/13 04:51:22;;;;;;;5.97;3.20;;;;;;;0.30;83.91;97162.05;1732282;83;21024;-79
2022/11/13 04:54:08;;;;;;;8.07;4.43;;;;;;;0.30;84.37;97159.04;1732178;83;21053;-79
2022/11/13 04:56:53;;;;;;;7.17;3.47;;;;;;;0.37;85.15;97160.22;1732484;83;21005;-79
2022/11/13 04:59:38;;;;;;;4.73;2.60;;;;;;;0.38;84.32;97156.83;1732076;83;21486;-79
2022/11/13 05:02:23;;;;;;;6.33;3.00;;;;;;;0.46;85.12;97154.16;1732389;83;21044;-79
2022/11/13 05:05:08;;;;;;;3.17;2.50;;;;;;;0.51;85.11;97151.36;1732040;83;21538;-78
2022/11/13 05:07:53;;;;;;;5.53;2.57;;;;;;;0.56;84.93;97150.28;1732283;83;21009;-79
2022/11/13 05:10:37;;;;;;;5.10;2.73;;;;;;;0.66;85.22;97143.37;1732103;83;21029;-79
2022/11/13 05:13:23;;;;;;;18.87;10.13;;;;;;;0.55;84.11;97145.88;1732205;83;21546;-79
2022/11/13 05:16:12;;;;;;;6.00;4.33;;;;;;;0.38;83.52;97141.25;1732270;83;21025;-79
2022/11/13 05:18:58;;;;;;;10.00;5.47;;;;;;;0.35;84.11;97143.30;1732357;83;21080;-78
2022/11/13 05:21:43;;;;;;;3.80;2.40;;;;;;;0.34;84.36;97140.20;1732084;83;21021;-79
2022/11/13 05:24:29;;;;;;;4.67;2.90;;;;;;;0.34;84.50;97141.50;1732378;82;21017;-79
2022/11/13 05:27:14;;;;;;;13.83;2.87;;;;;;;0.35;84.52;97137.19;1732111;83;21024;-79
2022/11/13 05:29:59;;;;;;;3.30;1.90;;;;;;;0.36;84.70;97137.69;1732358;83;21032;-79
2022/11/13 05:32:44;;;;;;;3.73;2.47;;;;;;;0.34;84.33;97138.91;1732155;83;21405;-79
2022/11/13 05:35:29;;;;;;;4.80;2.80;;;;;;;0.26;84.41;97137.67;1732295;83;21016;-79
2022/11/13 05:38:14;;;;;;;4.03;2.50;;;;;;;0.28;84.70;97136.04;1732058;83;20990;-79
2022/11/13 05:41:09;;;;;;;9.17;5.40;;;;;;;0.30;85.05;97145.17;1732213;83;20961;-79
2022/11/13 05:43:54;;;;;;;19.77;11.00;;;;;;;0.26;85.26;97145.88;1732104;83;21084;-79
2022/11/13 05:46:39;;;;;;;28.90;13.60;;;;;;;0.24;84.80;97144.50;1732387;83;21013;-79
2022/11/13 05:49:25;;;;;;;16.67;7.50;;;;;;;0.28;85.05;97149.02;1732014;82;21024;-79
2022/11/13 05:52:10;;;;;;;21.87;10.80;;;;;;;0.29;84.48;97153.38;1732134;83;21012;-79
2022/11/13 05:54:55;;;;;;;4.37;2.47;;;;;;;0.20;84.84;97154.24;1732087;83;21486;-79
2022/11/13 05:57:40;;;;;;;3.27;1.87;;;;;;;0.31;85.42;97146.97;1732373;83;21020;-79
2022/11/13 06:00:25;;;;;;;3.67;2.60;;;;;;;0.40;85.19;97146.98;1732144;83;21486;-79
2022/11/13 06:03:10;;;;;;;10.43;6.30;;;;;;;0.35;84.65;97144.59;1732318;83;21060;-79
2022/11/13 06:05:55;;;;;;;45.57;28.57;;;;;;;0.36;85.16;97142.47;1732137;83;21141;-78
2022/11/13 06:08:41;;;;;;;29.60;17.97;;;;;;;0.30;85.16;97150.37;1732157;83;21008;-79
2022/11/13 06:11:29;;;;;;;29.57;20.37;;;;;;;0.36;85.56;97148.08;1732120;82;21044;-79
2022/11/13 06:14:14;;;;;;;14.23;8.03;;;;;;;0.50;85.67;97155.17;1732387;82;21484;-79
2022/11/13 06:16:59;;;;;;;4.10;2.47;;;;;;;0.50;85.63;97150.86;1732271;83;21032;-79
2022/11/13 06:19:44;;;;;;;4.53;2.30;;;;;;;0.59;86.00;97145.21;1732478;83;21001;-79
2022/11/13 06:22:29;;;;;;;3.33;2.70;;;;;;;0.81;86.56;97147.95;1732113;83;20985;-79
2022/11/13 06:25:14;;;;;;;13.23;8.13;;;;;;;0.95;85.59;97142.45;1732621;83;20989;-79
2022/11/13 06:27:59;;;;;;;4.20;3.17;;;;;;;0.91;85.23;97147.03;1732292;83;20993;-80
2022/11/13 06:30:44;;;;;;;4.20;1.90;;;;;;;0.98;85.47;97140.89;1732352;83;21037;-81
2022/11/13 06:33:30;;;;;;;18.63;11.13;;;;;;;0.99;84.75;97139.17;1732254;83;21563;-80
2022/11/13 06:36:26;;;;;;;31.00;18.93;;;;;;;1.01;85.54;97142.73;1732503;83;21056;-80
2022/11/13 06:39:11;;;;;;;21.33;12.93;;;;;;;1.08;85.51;97134.34;1732282;82;21519;-80
2022/11/13 06:41:56;;;;;;;16.80;11.57;;;;;;;1.13;85.63;97139.75;1732496;83;21040;-79
2022/11/13 06:44:41;;;;;;;5.70;3.43;;;;;;;1.15;85.34;97127.30;1732309;83;21023;-79
2022/11/13 06:47:27;;;;;;;5.00;3.37;;;;;;;1.13;85.12;97128.94;1732572;83;21056;-79
2022/11/13 06:50:12;;;;;;;11.43;6.17;;;;;;;1.16;85.66;97127.79;1732223;83;21506;-79
2022/11/13 06:52:57;;;;;;;10.93;6.70;;;;;;;1.33;86.15;97124.58;1732387;83;20989;-78
2022/11/13 06:55:49;;;;;;;6.43;3.77;;;;;;;1.47;86.26;97123.86;1732352;83;21009;-77
2022/11/13 06:58:34;;;;;;;5.60;2.50;;;;;;;1.50;85.92;97127.46;1732494;83;21044;-78
2022/11/13 07:01:23;;;;;;;8.03;3.93;;;;;;;1.54;85.76;97127.58;1732265;83;20981;-78
2022/11/13 07:04:13;;;;;;;12.53;7.77;;;;;;;1.65;86.04;97122.42;1732466;82;21052;-77
2022/11/13 07:06:58;;;;;;;9.57;6.27;;;;;;;1.69;86.00;97123.03;1732233;83;21025;-78
2022/11/13 07:09:43;;;;;;;7.30;5.30;;;;;;;1.76;85.92;97117.21;1732432;83;21040;-79
2022/11/13 07:12:28;;;;;;;7.50;4.07;;;;;;;1.80;85.52;97115.64;1732075;82;21016;-80
2022/11/13 07:15:15;;;;;;;7.43;5.13;;;;;;;1.84;85.71;97110.63;1732251;83;21020;-79
2022/11/13 07:18:00;;;;;;;11.60;6.87;;;;;;;1.98;86.39;97116.36;1732229;83;21028;-79
2022/11/13 07:20:46;;;;;;;17.97;9.70;;;;;;;2.14;86.14;97113.92;1732177;83;21351;-78
2022/11/13 07:23:31;;;;;;;14.73;9.00;;;;;;;2.29;86.73;97109.71;1717241;83;21052;-79
2022/11/13 07:26:16;;;;;;;19.83;11.83;;;;;;;2.42;86.38;97116.27;1732169;83;21058;-78
2022/11/13 07:29:01;;;;;;;25.53;16.30;;;;;;;2.53;86.22;97104.12;1732246;83;21012;-78
2022/11/13 07:31:46;;;;;;;20.97;12.10;;;;;;;2.75;86.61;97107.09;1732203;83;21001;-78
2022/11/13 07:34:31;;;;;;;15.10;11.03;;;;;;;2.90;86.13;97101.94;1732192;83;21020;-78
2022/11/13 07:37:17;;;;;;;14.17;9.83;;;;;;;2.90;85.25;97099.33;1732130;82;21605;-77
2022/11/13 07:40:04;;;;;;;16.37;9.87;;;;;;;3.01;85.48;97094.97;1732147;83;21075;-78
2022/11/13 07:42:58;;;;;;;18.60;10.90;;;;;;;3.12;85.14;97091.42;1732279;83;21486;-78
2022/11/13 07:45:44;;;;;;;19.77;9.73;;;;;;;3.11;85.10;97090.96;1732226;83;21092;-77
2022/11/13 07:48:29;;;;;;;19.03;10.97;;;;;;;3.21;85.16;97086.95;1732140;83;20989;-78
2022/11/13 07:51:14;;;;;;;17.80;10.40;;;;;;;3.32;85.36;97085.58;1732325;83;21067;-78
2022/11/13 07:53:59;;;;;;;16.93;11.23;;;;;;;3.51;85.76;97079.25;1732060;83;21021;-78
2022/11/13 07:56:46;;;;;;;18.50;11.27;;;;;;;3.77;86.32;97089.64;1732215;83;21009;-79
2022/11/13 07:59:31;;;;;;;16.70;10.77;;;;;;;4.01;85.97;97076.48;1732449;82;21507;-79
2022/11/13 08:02:16;;;;;;;16.33;11.17;;;;;;;4.15;85.20;97081.67;1732234;82;21071;-79
2022/11/13 08:05:01;;;;;;;16.23;10.43;;;;;;;4.20;84.82;97081.39;1732535;83;21001;-80
2022/11/13 08:07:50;;;;;;;18.63;10.77;;;;;;;4.44;85.82;97076.45;1732160;83;21525;-80
2022/11/13 08:10:35;;;;;;;20.83;12.47;;;;;;;4.61;85.22;97071.28;1732485;83;21036;-80
2022/11/13 08:13:21;;;;;;;17.07;11.10;;;;;;;4.86;85.20;97063.66;1732219;82;21580;-81
2022/11/13 08:16:06;;;;;;;19.53;11.67;;;;;;;5.04;84.41;97060.69;1732476;82;21013;-81
2022/11/13 08:18:51;;;;;;;18.87;10.20;;;;;;;5.25;84.47;97058.16;1732300;83;21020;-79
2022/11/13 08:21:36;;;;;;;17.77;11.80;;;;;;;5.45;84.37;97049.07;1732351;82;21056;-80
2022/11/13 08:24:21;;;;;;;13.40;9.33;;;;;;;5.71;84.66;97039.64;1732119;83;21459;-81
2022/11/13 08:27:07;;;;;;;11.83;7.63;;;;;;;5.96;84.53;97035.45;1732406;83;21075;-81
2022/11/13 08:29:52;;;;;;;14.27;9.23;;;;;;;6.20;83.81;97040.37;1732094;83;21037;-79
2022/11/13 08:32:37;;;;;;;21.20;13.03;;;;;;;6.42;82.38;97037.75;1732507;83;21463;-80
2022/11/13 08:35:22;;;;;;;19.53;10.53;;;;;;;6.54;82.29;97037.13;1732283;83;21032;-79
2022/11/13 08:38:08;;;;;;;13.50;9.10;;;;;;;6.58;81.61;97031.53;1732317;83;21025;-79
2022/11/13 08:40:57;;;;;;;16.40;11.97;;;;;;;6.69;81.48;97036.55;1732283;83;21012;-80
2022/11/13 08:43:42;;;;;;;10.13;6.70;;;;;;;6.84;81.53;97029.41;1732405;82;21052;-80
2022/11/13 08:46:27;;;;;;;9.97;6.23;;;;;;;6.98;81.06;97029.65;1732172;83;21025;-79
2022/11/13 08:49:12;;;;;;;10.20;5.90;;;;;;;7.05;80.48;97024.97;1732405;83;21009;-80
2022/11/13 08:51:57;;;;;;;9.47;5.60;;;;;;;7.17;80.23;97026.51;1732096;83;21425;-80
2022/11/13 08:54:43;;;;;;;10.37;6.13;;;;;;;7.34;80.22;97030.31;1732269;83;21013;-80
2022/11/13 08:57:28;;;;;;;11.43;5.77;;;;;;;7.61;80.29;97026.39;1732107;83;21100;-80
2022/11/13 09:00:14;;;;;;;8.73;5.13;;;;;;;7.83;78.64;97027.58;1732383;83;21016;-80
2022/11/13 09:03:00;;;;;;;8.97;4.53;;;;;;;8.10;77.18;97020.97;1732153;83;21017;-80
2022/11/13 09:05:45;;;;;;;7.97;5.23;;;;;;;8.27;77.58;97015.52;1732284;83;21478;-80
2022/11/13 09:08:30;;;;;;;7.10;4.70;;;;;;;8.53;77.91;97021.56;1731841;83;21503;-80
2022/11/13 09:11:16;;;;;;;4.30;3.20;;;;;;;8.79;77.21;97024.05;1731986;82;21025;-80
2022/11/13 09:14:01;;;;;;;6.23;3.70;;;;;;;9.06;77.37;97022.16;1732198;83;21056;-80
2022/11/13 09:16:46;;;;;;;8.70;4.70;;;;;;;9.35;74.24;97011.44;1732162;83;21483;-80
2022/11/13 09:19:31;;;;;;;6.97;4.90;;;;;;;9.53;72.45;97012.50;1732102;83;21017;-79
2022/11/13 09:22:16;;;;;;;6.73;4.20;;;;;;;9.65;72.38;97013.05;1732347;83;21036;-79
2022/11/13 09:25:01;;;;;;;8.83;5.23;;;;;;;9.79;71.68;97008.30;1732032;83;21959;-80
2022/11/13 09:27:59;;;;;;;6.10;3.87;;;;;;;9.90;72.22;97001.33;1732140;83;21013;-80
2022/11/13 09:30:44;;;;;;;5.27;4.40;;;;;;;10.12;72.46;96995.77;1732146;83;21075;-80
2022/11/13 09:33:29;;;;;;;6.40;3.87;;;;;;;10.37;70.20;96988.45;1732119;83;21029;-80
2022/11/13 09:36:16;;;;;;;5.83;4.50;;;;;;;10.54;70.00;96989.84;1732134;83;21563;-78
2022/11/13 09:39:03;;;;;;;6.92;5.20;;;;;;;10.72;68.42;96975.83;1731930;83;21017;-79
2022/11/13 09:41:56;;;;;;;6.83;4.90;;;;;;;10.88;66.25;96979.83;1732286;83;21040;-79
2022/11/13 09:44:52;;;;;;;6.22;5.08;;;;;;;11.01;65.93;96981.61;1732285;83;21085;-79
2022/11/13 09:47:43;;;;;;;5.15;4.42;;;;;;;11.17;65.71;96981.22;1732303;83;21495;-79
2022/11/13 09:50:31;;;;;;;7.10;5.37;;;;;;;11.50;65.07;96978.16;1732083;83;21068;-77
2022/11/13 09:53:16;;;;;;;8.50;5.42;;;;;;;11.89;63.10;96971.55;1732113;83;21032;-79
2022/11/13 09:56:28;;;;;;;8.00;5.15;;;;;;;12.27;62.17;96966.60;1732428;83;20993;-79
2022/11/13 09:59:27;;;;;;;8.03;5.67;;;;;;;12.69;61.50;96964.64;1732489;83;20981;-79
2022/11/13 10:02:43;;;;;;;8.00;5.50;;;;;;;13.29;61.89;96959.47;1732606;83;21029;-78
2022/11/13 10:05:56;;;;;;;8.03;5.50;;;;;;;14.05;54.30;96953.47;1732468;83;21483;-79
2022/11/13 10:09:02;;;;;;;7.53;5.13;;;;;;;14.05;54.30;96953.47;1732317;83;20996;-78
2022/11/13 10:12:02;;;;;;;6.97;4.85;;;;;;;14.48;57.43;96941.48;1732363;83;21047;-77
2022/11/13 10:14:51;;;;;;;6.22;4.92;;;;;;;15.01;58.30;96938.58;1732401;83;21020;-77
2022/11/13 10:17:45;;;;;;;6.78;5.33;;;;;;;15.45;50.87;96936.16;1732445;83;21004;-78
2022/11/13 10:20:43;;;;;;;8.05;6.10;;;;;;;15.76;53.95;96929.43;1732500;83;21052;-78
2022/11/13 10:23:37;;;;;;;6.05;5.35;;;;;;;16.17;52.54;96919.78;1732360;83;21012;-77
2022/11/13 10:26:26;;;;;;;6.97;5.05;;;;;;;16.57;52.52;96924.31;1732286;83;21467;-77
2022/11/13 10:29:16;;;;;;;6.12;5.05;;;;;;;16.92;51.64;96917.84;1732444;83;21017;-77
2022/11/13 10:32:25;;;;;;;6.70;5.35;;;;;;;17.13;48.14;96918.67;1732334;83;21002;-77
2022/11/13 10:35:33;;;;;;;7.47;5.65;;;;;;;17.38;48.68;96916.30;1732170;83;20997;-77
2022/11/13 10:38:32;;;;;;;5.70;5.10;;;;;;;17.52;46.79;96913.30;1732144;83;21051;-77
2022/11/13 10:41:20;;;;;;;7.05;5.15;;;;;;;17.83;45.60;96906.74;1732252;83;21060;-77
2022/11/13 10:44:24;;;;;;;6.40;5.20;;;;;;;18.14;45.47;96908.16;1732306;83;21064;-77
2022/11/13 10:47:20;;;;;;;6.42;5.15;;;;;;;18.43;44.74;96913.59;1731171;83;21032;-76
2022/11/13 10:50:28;;;;;;;9.25;7.35;;;;;;;18.64;43.33;96896.91;1732175;83;21063;-77
2022/11/13 10:53:17;;;;;;;6.25;5.15;;;;;;;18.94;44.76;96897.81;1732207;83;21032;-75
2022/11/13 10:56:15;;;;;;;7.37;5.53;;;;;;;19.18;41.88;96893.98;1732282;83;21020;-76
2022/11/13 10:59:18;;;;;;;5.42;4.58;;;;;;;19.33;43.32;96883.25;1732237;83;21487;-76
2022/11/13 11:02:22;;;;;;;5.83;4.65;;;;;;;19.34;41.39;96882.31;1732368;83;21542;-76
2022/11/13 11:05:21;;;;;;;5.70;4.87;;;;;;;19.42;41.81;96878.44;1732159;83;21095;-76
2022/11/13 11:08:12;;;;;;;6.10;4.12;;;;;;;19.85;42.29;96871.66;1732228;83;21324;-76
2022/11/13 11:14:48;;;;;;;5.28;4.78;;;;;;;20.17;39.33;96872.33;1732246;83;21037;-76
2022/11/13 11:17:53;;;;;;;5.22;4.03;;;;;;;20.03;39.86;96866.58;1732284;83;20993;-76
2022/11/13 11:20:55;;;;;;;5.50;4.37;;;;;;;20.20;40.14;96866.84;1732453;83;21020;-76
2022/11/13 11:23:55;;;;;;;5.33;4.40;;;;;;;20.46;39.26;96859.64;1732365;83;21016;-76
2022/11/13 11:26:48;;;;;;;5.45;4.50;;;;;;;20.80;37.91;96854.38;1732437;83;21009;-76
2022/11/13 11:30:00;;;;;;;6.42;4.12;;;;;;;20.75;36.55;96846.51;1732387;83;21535;-76
2022/11/13 11:33:06;;;;;;;6.72;4.62;;;;;;;20.90;36.98;96851.74;1732357;83;21048;-76
2022/11/13 11:36:14;;;;;;;4.80;4.30;;;;;;;20.96;36.66;96843.44;1732371;83;21024;-76
2022/11/13 11:39:41;;;;;;;6.37;4.78;;;;;;;21.04;36.42;96834.63;1732240;83;21017;-76
2022/11/13 11:42:40;;;;;;;5.67;4.37;;;;;;;21.20;35.60;96835.34;1732305;83;21020;-76
2022/11/13 11:45:43;;;;;;;6.10;4.40;;;;;;;21.28;36.70;96833.22;1732365;83;21020;-76
2022/11/13 11:48:33;;;;;;;;;;;;;;;21.77;36.14;96829.37;1734987;83;21060;-76
2022/11/13 11:51:34;;;;;;;4.75;3.80;;;;;;;21.90;35.47;96835.52;1732444;83;20127;-77
2022/11/13 11:54:42;;;;;;;4.72;3.87;;;;;;;22.14;35.07;96830.89;1732301;83;21033;-76
2022/11/13 11:57:41;;;;;;;4.55;4.10;;;;;;;22.04;34.27;96835.32;1732383;83;21060;-76
2022/11/13 12:00:31;;;;;;;4.78;3.87;;;;;;;22.24;33.24;96826.40;1732221;83;21020;-77
2022/11/13 12:03:54;;;;;;;4.37;3.70;;;;;;;22.35;33.16;96823.69;1732300;83;21038;-76
2022/11/13 12:07:12;;;;;;;5.42;3.85;;;;;;;22.55;33.60;96823.64;1732474;83;21494;-76
2022/11/13 12:10:32;;;;;;;4.15;3.75;;;;;;;22.62;34.03;96821.55;1732324;83;21531;-76
2022/11/13 12:13:35;;;;;;;5.65;3.98;;;;;;;22.61;32.77;96823.37;1732218;82;21533;-76
2022/11/13 12:16:31;;;;;;;6.62;3.87;;;;;;;22.38;32.77;96822.23;1732413;83;21542;-76
2022/11/13 12:19:59;;;;;;;4.20;3.80;;;;;;;22.59;33.34;96813.63;1732213;83;21056;-76
2022/11/13 12:23:01;;;;;;;6.45;3.70;;;;;;;22.68;33.03;96814.07;1732418;83;21013;-76
2022/11/13 12:26:09;;;;;;;5.85;3.90;;;;;;;22.69;31.30;96815.80;1732159;83;21024;-76
2022/11/13 12:29:22;;;;;;;4.35;3.75;;;;;;;22.74;31.71;96815.59;1732332;83;21467;-76
2022/11/13 12:32:47;;;;;;;3.25;2.95;;;;;;;22.85;32.30;96819.11;1732292;83;21076;-76
2022/11/13 12:35:32;;;;;;;5.40;3.92;;;;;;;23.19;31.14;96813.48;1732321;83;21008;-76
2022/11/13 12:38:35;;;;;;;4.20;3.75;;;;;;;23.44;32.04;96803.22;1732286;83;21563;-76
2022/11/13 12:41:54;;;;;;;5.42;4.00;;;;;;;23.23;30.43;96802.94;1732395;83;21519;-75
2022/11/13 12:44:48;;;;;;;4.97;3.80;;;;;;;23.65;30.63;96801.24;1732119;83;21068;-76
2022/11/13 12:47:35;;;;;;;5.35;4.10;;;;;;;23.48;30.68;96797.19;1732412;83;21033;-76
2022/11/13 12:50:30;;;;;;;5.37;3.95;;;;;;;23.53;29.70;96797.83;1732063;83;21040;-76
2022/11/13 12:53:24;;;;;;;6.58;4.35;;;;;;;23.43;30.44;96796.55;1732412;83;21021;-76
2022/11/13 12:56:17;;;;;;;5.35;4.70;;;;;;;23.86;31.13;96791.67;1732145;83;21016;-76
2022/11/13 12:59:21;;;;;;;4.50;4.05;;;;;;;24.27;31.02;96798.93;1718580;83;21091;-76
2022/11/13 13:02:12;;;;;;;7.58;5.60;;;;;;;24.15;29.66;96795.54;1732170;83;21499;-76
2022/11/13 13:05:26;;;;;;;7.50;4.85;;;;;;;23.55;30.02;96792.76;1732381;83;21502;-76
2022/11/13 13:08:44;;;;;;;7.35;5.58;;;;;;;23.23;31.66;96799.77;1732125;83;21507;-76
2022/11/13 13:11:56;;;;;;;4.95;4.30;;;;;;;23.28;31.30;96796.40;1732138;83;21088;-75
2022/11/13 13:14:52;;;;;;;7.90;6.62;;;;;;;23.00;31.96;96802.73;1719749;83;21065;-75
2022/11/13 13:17:37;;;;;;;8.05;6.65;;;;;;;23.28;31.39;96792.36;1719391;83;21061;-76
2022/11/13 13:20:30;;;;;;;6.60;4.85;;;;;;;22.62;32.91;96794.64;1719260;83;21013;-76
2022/11/13 13:23:18;;;;;;;;;;;;;;;22.29;33.25;96795.27;1722152;83;21014;-76
2022/11/13 13:26:20;;;;;;;5.85;4.80;;;;;;;20.91;34.43;96795.80;1719186;83;20385;-76
2022/11/13 13:29:25;;;;;;;7.30;4.95;;;;;;;18.99;38.07;96811.62;1719548;83;21016;-75